Time;durP1;ratioP1;P1;durP2;ratioP2;P2;SDS_P1;SDS_P2;PMS_P1;PMS_P2;Temp;Humidity;BMP_temperature;BMP_pressure;BME280_temperature;BME280_humidity;BME280_pressure;Samples;Min_cycle;Max_cycle;Signal;HPM_P1;HPM_P2
2023/05/04 00:01:00;;;;;;;41.63;7.83;;;19.30;51.10;;;;;;5109383;28;20265;-91
2023/05/04 00:03:26;;;;;;;36.13;7.50;;;19.30;51.20;;;;;;5110137;28;20251;-91
2023/05/04 00:05:53;;;;;;;47.10;7.87;;;19.20;51.10;;;;;;5108633;28;20424;-91
2023/05/04 00:08:20;;;;;;;36.53;7.20;;;19.30;51.20;;;;;;5114438;27;20237;-92
2023/05/04 00:10:47;;;;;;;33.33;6.87;;;19.20;51.10;;;;;;5130671;27;20284;-92
2023/05/04 00:13:14;;;;;;;31.87;7.20;;;19.20;51.00;;;;;;5129756;27;20288;-93
2023/05/04 00:15:43;;;;;;;33.73;7.13;;;19.20;51.10;;;;;;5129670;27;20284;-92
2023/05/04 00:18:09;;;;;;;29.83;6.83;;;19.20;51.00;;;;;;5115296;27;20289;-93
2023/05/04 00:20:37;;;;;;;47.70;8.00;;;19.20;51.10;;;;;;5092673;27;20561;-91
2023/05/04 00:23:04;;;;;;;29.33;6.80;;;19.20;51.10;;;;;;5130370;27;20563;-90
2023/05/04 00:25:31;;;;;;;39.60;7.87;;;19.20;51.60;;;;;;5129589;27;20232;-93
2023/05/04 00:27:58;;;;;;;28.73;6.60;;;19.20;51.00;;;;;;5129479;27;20910;-92
2023/05/04 00:30:25;;;;;;;37.93;7.10;;;19.20;51.10;;;;;;5109283;27;20285;-91
2023/05/04 00:32:53;;;;;;;41.50;8.13;;;19.20;51.10;;;;;;5088696;28;20657;-92
2023/05/04 00:35:20;;;;;;;32.37;7.20;;;19.10;51.00;;;;;;5091004;28;20197;-91
2023/05/04 00:37:47;;;;;;;36.07;7.10;;;19.10;50.90;;;;;;5108562;28;20304;-90
2023/05/04 00:40:14;;;;;;;37.53;7.17;;;19.10;51.00;;;;;;5111557;27;20277;-90
2023/05/04 00:42:41;;;;;;;33.07;7.10;;;19.10;51.00;;;;;;5106964;28;20193;-91
2023/05/04 00:45:08;;;;;;;33.97;6.93;;;19.10;51.00;;;;;;5108927;28;20273;-90
2023/05/04 00:47:36;;;;;;;36.87;7.67;;;19.10;51.00;;;;;;5109028;28;20257;-90
2023/05/04 00:50:05;;;;;;;31.03;6.97;;;19.10;51.00;;;;;;5109229;28;20284;-91
2023/05/04 00:52:32;;;;;;;27.77;6.73;;;19.10;50.90;;;;;;5109127;28;20254;-91
2023/05/04 00:55:01;;;;;;;28.77;6.67;;;19.00;50.90;;;;;;5094254;28;20396;-90
2023/05/04 00:57:30;;;;;;;47.93;8.40;;;19.00;50.90;;;;;;5088340;28;20199;-91
2023/05/04 00:59:57;;;;;;;39.33;7.50;;;19.00;50.90;;;;;;5093030;28;20288;-92
2023/05/04 01:02:24;;;;;;;32.87;7.03;;;19.00;50.90;;;;;;5128326;27;20821;-91
2023/05/04 01:04:51;;;;;;;37.97;7.50;;;19.00;50.90;;;;;;5101479;27;20683;-90
2023/05/04 01:07:27;;;;;;;30.67;7.23;;;19.00;50.90;;;;;;5087479;28;20237;-90
2023/05/04 01:10:00;;;;;;;44.47;8.50;;;18.90;51.30;;;;;;5121623;27;20283;-90
2023/05/04 01:12:34;;;;;;;33.90;7.20;;;18.90;50.90;;;;;;5128263;27;20642;-90
2023/05/04 01:15:01;;;;;;;32.80;7.27;;;18.90;50.90;;;;;;5128562;27;20204;-91
2023/05/04 01:17:28;;;;;;;31.37;7.13;;;18.90;50.80;;;;;;5125464;27;20607;-89
2023/05/04 01:19:55;;;;;;;41.53;7.57;;;18.90;50.90;;;;;;5128143;27;20201;-91
2023/05/04 01:22:24;;;;;;;29.67;7.13;;;18.90;50.90;;;;;;5129154;28;20304;-91
2023/05/04 01:24:54;;;;;;;38.70;7.57;;;18.90;50.90;;;;;;5138946;28;20221;-90
2023/05/04 01:27:26;;;;;;;37.93;7.47;;;18.90;50.90;;;;;;5125072;28;20281;-90
2023/05/04 01:30:02;;;;;;;43.33;8.00;;;18.80;50.70;;;;;;5129314;28;20309;-90
2023/05/04 01:32:30;;;;;;;31.03;6.80;;;18.80;50.70;;;;;;5129546;28;20316;-90
2023/05/04 01:34:58;;;;;;;44.50;8.13;;;18.80;50.80;;;;;;5103782;28;20285;-92
2023/05/04 01:37:27;;;;;;;23.70;6.20;;;18.80;50.70;;;;;;5089675;28;20308;-92
2023/05/04 01:39:55;;;;;;;36.07;7.00;;;18.80;50.80;;;;;;5089049;28;20274;-93
2023/05/04 01:42:22;;;;;;;34.17;7.30;;;18.80;50.80;;;;;;5088345;28;20285;-92
2023/05/04 01:44:49;;;;;;;29.17;6.67;;;18.80;50.80;;;;;;5092503;28;20321;-93
2023/05/04 01:47:16;;;;;;;30.67;7.40;;;18.70;50.70;;;;;;5110845;27;20282;-93
2023/05/04 01:49:43;;;;;;;37.90;7.47;;;18.70;50.70;;;;;;5133726;27;20611;-93
2023/05/04 01:52:10;;;;;;;38.00;7.70;;;18.70;50.70;;;;;;5104319;27;20237;-91
2023/05/04 01:54:38;;;;;;;31.43;7.10;;;18.70;50.80;;;;;;5109188;28;20617;-92
2023/05/04 01:57:05;;;;;;;30.13;7.10;;;18.70;50.80;;;;;;5111979;28;20226;-92
2023/05/04 01:59:32;;;;;;;32.13;7.03;;;18.70;50.70;;;;;;5112562;28;20206;-92
2023/05/04 02:01:59;;;;;;;35.93;7.53;;;18.60;50.60;;;;;;5112251;28;20214;-91
2023/05/04 02:04:26;;;;;;;43.43;8.13;;;18.60;50.70;;;;;;5110845;28;20273;-92
2023/05/04 02:06:53;;;;;;;47.23;8.60;;;18.60;50.70;;;;;;5112773;27;20226;-92
2023/05/04 02:09:20;;;;;;;35.63;7.83;;;18.60;51.20;;;;;;5133255;27;20205;-92
2023/05/04 02:11:48;;;;;;;38.07;7.60;;;18.60;50.70;;;;;;5132122;27;20730;-91
2023/05/04 02:14:15;;;;;;;39.80;7.77;;;18.60;50.70;;;;;;5132547;27;20229;-92
2023/05/04 02:16:42;;;;;;;37.83;7.63;;;18.60;50.60;;;;;;5132530;27;20273;-92
2023/05/04 02:19:10;;;;;;;34.47;7.33;;;18.60;50.70;;;;;;5129720;27;20262;-92
2023/05/04 02:21:37;;;;;;;37.20;7.80;;;18.60;50.70;;;;;;5119352;27;20615;-92
2023/05/04 02:24:05;;;;;;;39.17;8.00;;;18.50;50.60;;;;;;5111704;28;20198;-92
2023/05/04 02:26:32;;;;;;;34.77;7.10;;;18.50;50.60;;;;;;5111029;28;20233;-91
2023/05/04 02:29:02;;;;;;;26.67;6.90;;;18.50;50.60;;;;;;5125655;27;20773;-91
2023/05/04 02:31:29;;;;;;;34.33;7.20;;;18.50;50.60;;;;;;5132587;27;20665;-92
2023/05/04 02:33:56;;;;;;;32.60;7.53;;;18.50;50.60;;;;;;5099982;27;20204;-92
2023/05/04 02:36:23;;;;;;;41.30;7.87;;;18.50;50.60;;;;;;5092696;28;20209;-91
2023/05/04 02:38:50;;;;;;;36.30;7.37;;;18.40;50.50;;;;;;5091480;28;20236;-91
2023/05/04 02:41:17;;;;;;;35.27;7.53;;;18.40;50.60;;;;;;5090819;28;20213;-91
2023/05/04 02:43:44;;;;;;;49.43;8.40;;;18.40;50.50;;;;;;5091838;28;20287;-92
2023/05/04 02:46:15;;;;;;;42.93;7.97;;;18.40;50.50;;;;;;5091355;28;20287;-92
2023/05/04 02:48:42;;;;;;;32.47;7.40;;;18.40;50.60;;;;;;5104949;27;20261;-92
2023/05/04 02:51:09;;;;;;;35.90;7.97;;;18.40;50.50;;;;;;5131528;27;20220;-91
2023/05/04 02:53:36;;;;;;;35.53;7.67;;;18.40;50.60;;;;;;5131707;27;20217;-90
2023/05/04 02:56:03;;;;;;;33.27;7.17;;;18.30;50.50;;;;;;5132619;27;20247;-91
2023/05/04 02:58:30;;;;;;;37.30;7.47;;;18.30;50.50;;;;;;5124110;27;20232;-91
2023/05/04 03:00:59;;;;;;;29.33;7.37;;;18.30;50.50;;;;;;5102111;28;20717;-91
2023/05/04 03:03:27;;;;;;;39.37;8.07;;;18.30;50.50;;;;;;5110719;28;20206;-91
2023/05/04 03:05:54;;;;;;;39.27;7.40;;;18.30;50.50;;;;;;5110577;28;20293;-91
2023/05/04 03:08:21;;;;;;;34.10;7.17;;;18.30;50.50;;;;;;5110699;28;20336;-91
2023/05/04 03:10:48;;;;;;;32.47;7.30;;;18.20;50.40;;;;;;5112915;27;20675;-90
2023/05/04 03:13:15;;;;;;;45.47;8.57;;;18.30;50.50;;;;;;5123313;27;20746;-90
2023/05/04 03:15:42;;;;;;;31.10;7.60;;;18.20;50.40;;;;;;5100497;28;20201;-90
2023/05/04 03:18:09;;;;;;;42.43;8.33;;;18.20;50.50;;;;;;5109578;27;20733;-90
2023/05/04 03:20:37;;;;;;;40.67;8.57;;;18.20;50.40;;;;;;5090139;28;20872;-89
2023/05/04 03:23:04;;;;;;;39.87;7.67;;;18.20;50.50;;;;;;5090656;28;20237;-92
2023/05/04 03:25:31;;;;;;;44.90;8.40;;;18.10;50.40;;;;;;5089979;28;20206;-90
2023/05/04 03:27:58;;;;;;;34.00;7.77;;;18.10;50.40;;;;;;5089682;28;20231;-90
2023/05/04 03:30:25;;;;;;;41.00;8.37;;;18.10;50.50;;;;;;5089592;28;20206;-91
2023/05/04 03:32:52;;;;;;;35.57;8.00;;;18.10;50.40;;;;;;5105179;28;20745;-92
2023/05/04 03:35:19;;;;;;;27.43;7.07;;;18.10;50.40;;;;;;5089881;28;20206;-90
2023/05/04 03:37:48;;;;;;;36.03;7.70;;;18.10;50.40;;;;;;5127122;27;20692;-91
2023/05/04 03:40:21;;;;;;;37.07;8.70;;;18.10;50.50;;;;;;5131816;27;20295;-93
2023/05/04 03:42:50;;;;;;;38.67;7.83;;;18.00;50.30;;;;;;5131155;27;20249;-90
2023/05/04 03:45:17;;;;;;;26.27;6.80;;;18.00;50.30;;;;;;5109973;28;20712;-92
2023/05/04 03:47:44;;;;;;;34.37;8.27;;;18.00;50.40;;;;;;5109253;27;20312;-91
2023/05/04 03:50:12;;;;;;;33.33;7.93;;;18.00;50.30;;;;;;5109623;28;20238;-91
2023/05/04 03:52:39;;;;;;;38.83;8.17;;;18.00;50.40;;;;;;5109293;28;20247;-90
2023/05/04 03:55:09;;;;;;;33.37;7.50;;;18.00;50.50;;;;;;5110482;28;20212;-91
2023/05/04 03:57:35;;;;;;;48.30;8.57;;;18.00;50.40;;;;;;5108916;27;20548;-92
2023/05/04 04:00:03;;;;;;;42.10;8.37;;;18.00;50.40;;;;;;5109354;28;20695;-89
2023/05/04 04:02:30;;;;;;;32.27;7.83;;;17.90;50.40;;;;;;5089439;28;20229;-93
2023/05/04 04:04:57;;;;;;;32.53;7.50;;;17.90;50.40;;;;;;5089379;28;20942;-90
2023/05/04 04:07:24;;;;;;;26.80;7.00;;;17.90;50.40;;;;;;5088700;28;20226;-90
2023/05/04 04:09:52;;;;;;;24.30;6.93;;;17.90;50.40;;;;;;5089628;28;20201;-91
2023/05/04 04:12:20;;;;;;;27.63;7.20;;;17.90;50.40;;;;;;5096001;28;20748;-93
2023/05/04 04:14:47;;;;;;;30.03;7.10;;;17.90;50.30;;;;;;5109597;28;20279;-91
2023/05/04 04:17:15;;;;;;;30.47;7.67;;;17.90;50.40;;;;;;5109673;28;20210;-89
2023/05/04 04:19:42;;;;;;;31.13;7.87;;;17.80;50.30;;;;;;5107985;28;20717;-91
2023/05/04 04:22:09;;;;;;;18.83;6.37;;;17.80;50.30;;;;;;5109374;28;20626;-92
2023/05/04 04:24:36;;;;;;;44.93;8.77;;;17.80;50.30;;;;;;5108577;28;20243;-91
2023/05/04 04:27:03;;;;;;;27.27;7.60;;;17.80;50.30;;;;;;5111972;27;20312;-90
2023/05/04 04:29:34;;;;;;;31.03;7.60;;;17.80;50.30;;;;;;5124877;27;20233;-91
2023/05/04 04:32:01;;;;;;;24.73;7.57;;;17.80;50.30;;;;;;5089120;28;20290;-91
2023/05/04 04:34:28;;;;;;;31.27;7.37;;;17.80;50.30;;;;;;5088622;28;20244;-90
2023/05/04 04:36:55;;;;;;;35.63;7.40;;;17.70;50.20;;;;;;5088374;28;20321;-90
2023/05/04 04:39:22;;;;;;;21.10;6.97;;;17.70;50.20;;;;;;5096532;28;20216;-91
2023/05/04 04:41:49;;;;;;;34.03;7.67;;;17.70;50.20;;;;;;5108997;28;20251;-91
2023/05/04 04:44:16;;;;;;;29.30;7.70;;;17.70;50.20;;;;;;5108601;28;20205;-92
2023/05/04 04:46:46;;;;;;;28.70;7.73;;;17.70;50.30;;;;;;5108223;28;20202;-88
2023/05/04 04:49:13;;;;;;;30.93;7.57;;;17.70;50.30;;;;;;5103221;28;20289;-88
2023/05/04 04:51:40;;;;;;;25.53;7.07;;;17.70;50.30;;;;;;5128680;27;20193;-88
2023/05/04 04:54:07;;;;;;;27.00;7.50;;;17.70;50.20;;;;;;5121749;27;20194;-88
2023/05/04 04:56:34;;;;;;;29.63;7.87;;;17.60;50.10;;;;;;5107002;28;20196;-88
2023/05/04 04:59:01;;;;;;;39.63;8.70;;;17.60;50.20;;;;;;5105602;27;20251;-88
2023/05/04 05:01:28;;;;;;;30.73;7.93;;;17.60;50.20;;;;;;5101609;27;20290;-88
2023/05/04 05:03:57;;;;;;;51.03;9.07;;;17.60;50.20;;;;;;5111695;28;20319;-89
2023/05/04 05:06:24;;;;;;;30.27;8.07;;;17.60;50.20;;;;;;5112206;28;20721;-88
2023/05/04 05:08:51;;;;;;;32.13;8.17;;;17.60;50.20;;;;;;5109856;28;20278;-89
2023/05/04 05:11:18;;;;;;;27.80;7.60;;;17.60;50.20;;;;;;5110034;28;20201;-88
2023/05/04 05:13:45;;;;;;;36.73;8.27;;;17.50;50.20;;;;;;5108405;28;20285;-88
2023/05/04 05:16:12;;;;;;;29.00;7.50;;;17.50;50.70;;;;;;5108054;28;20211;-88
2023/05/04 05:18:39;;;;;;;29.43;7.67;;;17.50;50.20;;;;;;5108067;28;20750;-88
2023/05/04 05:21:08;;;;;;;26.57;7.73;;;17.50;50.20;;;;;;5098790;27;20317;-88
2023/05/04 05:23:35;;;;;;;29.47;7.93;;;17.50;50.20;;;;;;5124811;27;20207;-88
2023/05/04 05:26:02;;;;;;;39.90;8.50;;;17.50;50.20;;;;;;5128450;28;20214;-88
2023/05/04 05:28:29;;;;;;;29.93;8.03;;;17.50;50.20;;;;;;5105254;28;20692;-88
2023/05/04 05:30:56;;;;;;;30.50;8.07;;;17.50;50.20;;;;;;5108188;28;20212;-87
2023/05/04 05:33:23;;;;;;;27.20;7.67;;;17.50;50.20;;;;;;5108018;28;20297;-87
2023/05/04 05:35:51;;;;;;;32.03;8.47;;;17.50;50.20;;;;;;5107426;28;20759;-87
2023/05/04 05:38:20;;;;;;;28.53;7.60;;;17.50;50.20;;;;;;5107073;28;20198;-87
2023/05/04 05:40:48;;;;;;;31.00;8.40;;;17.50;50.20;;;;;;5108257;28;20190;-88
2023/05/04 05:43:15;;;;;;;28.50;8.10;;;17.40;50.20;;;;;;5108040;28;20204;-88
2023/05/04 05:45:42;;;;;;;43.33;9.67;;;17.40;50.20;;;;;;5108581;28;20236;-88
2023/05/04 05:48:09;;;;;;;28.93;7.80;;;17.40;50.80;;;;;;5093900;28;20237;-88
2023/05/04 05:50:36;;;;;;;24.37;7.80;;;17.40;50.80;;;;;;5128292;28;20207;-88
2023/05/04 05:53:03;;;;;;;36.30;9.00;;;17.40;50.20;;;;;;5120036;27;20198;-88
2023/05/04 05:55:31;;;;;;;41.17;8.97;;;17.40;50.20;;;;;;5107659;28;20307;-88
2023/05/04 05:57:59;;;;;;;31.47;9.40;;;17.40;50.20;;;;;;5107107;28;20295;-87
2023/05/04 06:00:26;;;;;;;63.90;11.37;;;17.30;50.10;;;;;;5105616;28;20193;-87
2023/05/04 06:02:55;;;;;;;28.97;8.30;;;17.40;50.30;;;;;;5111277;28;20272;-88
2023/05/04 06:05:22;;;;;;;41.70;9.87;;;17.40;50.30;;;;;;5118894;28;20205;-88
2023/05/04 06:07:49;;;;;;;42.87;9.57;;;17.30;50.20;;;;;;5108012;28;20271;-88
2023/05/04 06:10:17;;;;;;;51.50;10.40;;;17.30;50.20;;;;;;5107176;28;20198;-88
2023/05/04 06:12:45;;;;;;;43.17;10.27;;;17.30;50.30;;;;;;5095188;28;20242;-88
2023/05/04 06:15:13;;;;;;;54.83;10.60;;;17.30;50.20;;;;;;5108357;28;20258;-88
2023/05/04 06:17:40;;;;;;;47.77;10.50;;;17.30;50.30;;;;;;5128009;27;20661;-88
2023/05/04 06:20:09;;;;;;;41.63;10.03;;;17.30;50.30;;;;;;5104145;28;20309;-88
2023/05/04 06:22:36;;;;;;;56.10;12.37;;;17.30;50.30;;;;;;5099424;28;20200;-87
2023/05/04 06:25:04;;;;;;;40.57;11.03;;;17.30;50.30;;;;;;5099610;28;20292;-86
2023/05/04 06:27:31;;;;;;;41.73;11.40;;;17.30;50.30;;;;;;5101042;28;20324;-87
2023/05/04 06:30:00;;;;;;;28.77;10.20;;;17.30;50.30;;;;;;5104071;28;20201;-87
2023/05/04 06:32:27;;;;;;;42.57;11.80;;;17.30;50.40;;;;;;5094753;28;20289;-87
2023/05/04 06:34:54;;;;;;;31.50;10.53;;;17.30;50.40;;;;;;5090684;28;20267;-87
2023/05/04 06:37:22;;;;;;;36.63;10.57;;;17.30;50.40;;;;;;5108302;27;20205;-87
2023/05/04 06:39:49;;;;;;;32.50;11.07;;;17.30;50.50;;;;;;5110745;28;20216;-88
2023/05/04 06:42:16;;;;;;;42.30;12.17;;;17.30;50.50;;;;;;5103729;28;20284;-88
2023/05/04 06:44:43;;;;;;;82.40;15.27;;;17.30;50.50;;;;;;5096435;28;20284;-88
2023/05/04 06:47:11;;;;;;;55.63;12.80;;;17.30;50.50;;;;;;5105230;28;20655;-88
2023/05/04 06:49:38;;;;;;;41.00;11.70;;;17.30;50.50;;;;;;5096670;28;20283;-88
2023/05/04 06:52:05;;;;;;;41.37;11.57;;;17.30;50.50;;;;;;5105343;27;20288;-88
2023/05/04 06:54:32;;;;;;;42.73;12.17;;;17.30;50.50;;;;;;5109889;28;20714;-87
2023/05/04 06:56:59;;;;;;;49.23;11.33;;;17.30;50.50;;;;;;5111337;27;20209;-88
2023/05/04 06:59:26;;;;;;;73.60;14.13;;;17.30;50.50;;;;;;5107576;27;20288;-86
2023/05/04 07:01:53;;;;;;;38.20;11.13;;;17.30;50.50;;;;;;5110151;28;20284;-88
2023/05/04 07:04:22;;;;;;;40.50;10.87;;;17.40;50.60;;;;;;5110262;28;20205;-86
2023/05/04 07:06:49;;;;;;;65.97;13.33;;;17.40;50.60;;;;;;5107693;28;20206;-89
2023/05/04 07:09:17;;;;;;;43.73;11.33;;;17.40;50.60;;;;;;5092088;28;20222;-87
2023/05/04 07:11:44;;;;;;;47.50;11.63;;;17.40;50.60;;;;;;5106088;28;20201;-87
2023/05/04 07:14:11;;;;;;;40.73;11.43;;;17.40;50.60;;;;;;5105123;28;20296;-87
2023/05/04 07:16:38;;;;;;;40.07;10.73;;;17.40;50.60;;;;;;5109361;28;20215;-88
2023/05/04 07:19:05;;;;;;;43.80;10.93;;;17.40;50.60;;;;;;5094915;28;20296;-86
2023/05/04 07:21:34;;;;;;;39.07;10.87;;;17.40;50.60;;;;;;5109963;28;20650;-86
2023/05/04 07:24:01;;;;;;;42.03;10.87;;;17.40;50.60;;;;;;5107188;27;20748;-87
2023/05/04 07:26:27;;;;;;;65.20;12.63;;;17.50;50.70;;;;;;5100851;28;20731;-85
2023/05/04 07:28:54;;;;;;;67.20;14.13;;;17.50;50.70;;;;;;5107436;28;20443;-86
2023/05/04 07:31:21;;;;;;;39.53;10.97;;;17.50;50.70;;;;;;5101505;28;20284;-87
2023/05/04 07:33:49;;;;;;;38.47;10.77;;;17.40;50.60;;;;;;5089577;28;20195;-88
2023/05/04 07:36:16;;;;;;;32.27;10.87;;;17.50;50.70;;;;;;5089958;28;20213;-87
2023/05/04 07:38:44;;;;;;;44.73;11.60;;;17.50;50.70;;;;;;5108052;28;20254;-88
2023/05/04 07:41:11;;;;;;;39.77;11.60;;;17.50;50.70;;;;;;5091459;28;20289;-86
2023/05/04 07:43:38;;;;;;;37.17;10.97;;;17.50;50.70;;;;;;5089180;28;20241;-86
2023/05/04 07:46:05;;;;;;;53.80;12.13;;;17.50;50.70;;;;;;5091293;28;20258;-86
2023/05/04 07:48:33;;;;;;;43.03;11.47;;;17.50;50.70;;;;;;5109178;28;20247;-88
2023/05/04 07:51:00;;;;;;;41.03;11.63;;;17.50;50.70;;;;;;5108335;28;20201;-89
2023/05/04 07:53:30;;;;;;;38.20;10.40;;;17.50;50.70;;;;;;5107635;27;20249;-90
2023/05/04 07:56:08;;;;;;;43.87;11.60;;;17.60;50.70;;;;;;5108592;27;20201;-88
2023/05/04 07:58:34;;;;;;;32.20;10.47;;;17.60;50.80;;;;;;5109073;28;20240;-88
2023/05/04 08:01:02;;;;;;;38.27;11.73;;;17.60;50.80;;;;;;5106658;28;20201;-87
2023/05/04 08:03:30;;;;;;;38.37;10.90;;;17.60;50.80;;;;;;5107247;28;20201;-88
2023/05/04 08:05:57;;;;;;;33.63;9.80;;;17.60;50.70;;;;;;5108739;28;20575;-89
2023/05/04 08:08:25;;;;;;;38.30;11.17;;;17.60;50.70;;;;;;5109218;28;20859;-89
2023/05/04 08:10:53;;;;;;;49.00;11.60;;;17.70;50.90;;;;;;5098663;27;20220;-90
2023/05/04 08:13:21;;;;;;;39.67;10.30;;;17.60;50.80;;;;;;5101718;28;20313;-90
2023/05/04 08:15:49;;;;;;;36.17;10.73;;;17.70;50.90;;;;;;5098702;28;20233;-90
2023/05/04 08:18:16;;;;;;;42.33;11.80;;;17.70;50.90;;;;;;5111386;28;20685;-87
2023/05/04 08:20:43;;;;;;;46.70;13.70;;;17.70;51.00;;;;;;5108691;28;20197;-88
2023/05/04 08:23:10;;;;;;;50.80;12.27;;;17.70;51.00;;;;;;5108558;28;20207;-89
2023/05/04 08:25:37;;;;;;;49.67;11.90;;;17.80;51.10;;;;;;5096848;28;20626;-89
2023/05/04 08:28:05;;;;;;;53.57;12.57;;;17.80;51.10;;;;;;5103082;28;20776;-89
2023/05/04 08:30:33;;;;;;;55.07;12.53;;;17.80;51.10;;;;;;5104666;28;20198;-88
2023/05/04 08:33:00;;;;;;;51.57;11.87;;;17.80;51.10;;;;;;5094316;28;20202;-89
2023/05/04 08:35:27;;;;;;;43.97;11.13;;;17.90;51.10;;;;;;5107447;28;20771;-89
2023/05/04 08:37:57;;;;;;;38.23;10.30;;;17.90;51.10;;;;;;5107862;28;20213;-89
2023/05/04 08:40:24;;;;;;;24.00;8.47;;;17.90;51.10;;;;;;5113419;28;20301;-88
2023/05/04 08:42:51;;;;;;;27.80;8.57;;;18.00;51.20;;;;;;5125833;28;20650;-88
2023/05/04 08:45:18;;;;;;;35.97;10.33;;;18.00;51.20;;;;;;5112601;28;20577;-89
2023/05/04 08:47:46;;;;;;;31.97;8.87;;;18.00;51.20;;;;;;5108950;28;20309;-88
2023/05/04 08:50:19;;;;;;;34.23;9.47;;;18.00;51.30;;;;;;5110732;28;20588;-89
2023/05/04 08:52:47;;;;;;;25.20;8.57;;;18.00;51.30;;;;;;5110304;28;20245;-89
2023/05/04 08:55:15;;;;;;;40.40;9.30;;;18.10;51.90;;;;;;5107153;28;20586;-89
2023/05/04 08:57:44;;;;;;;33.77;8.80;;;18.10;51.30;;;;;;5108385;28;20205;-88
2023/05/04 09:00:13;;;;;;;29.40;8.00;;;18.20;51.40;;;;;;5108602;28;20238;-89
2023/05/04 09:02:44;;;;;;;36.57;9.43;;;18.20;51.40;;;;;;5107766;28;20237;-90
2023/05/04 09:05:16;;;;;;;54.20;10.23;;;18.20;51.50;;;;;;5107333;28;20206;-89
2023/05/04 09:07:42;;;;;;;30.77;8.47;;;18.20;51.40;;;;;;5127704;27;20347;-89
2023/05/04 09:10:10;;;;;;;43.23;9.80;;;18.30;51.50;;;;;;5121921;27;20322;-88
2023/05/04 09:12:37;;;;;;;26.57;7.97;;;18.30;51.50;;;;;;5107827;28;20293;-88
2023/05/04 09:15:15;;;;;;;41.03;9.50;;;18.40;51.60;;;;;;5107826;28;20206;-88
2023/05/04 09:17:43;;;;;;;24.10;8.23;;;18.40;51.70;;;;;;5105743;28;20614;-89
2023/05/04 09:20:13;;;;;;;33.13;9.53;;;18.40;51.70;;;;;;5097894;28;20206;-89
2023/05/04 09:22:40;;;;;;;39.33;9.80;;;18.50;51.70;;;;;;5113216;27;20209;-89
2023/05/04 09:25:09;;;;;;;53.43;10.67;;;18.50;51.80;;;;;;5091308;28;20607;-88
2023/05/04 09:27:36;;;;;;;58.03;10.37;;;18.50;51.80;;;;;;5107542;28;20658;-88
2023/05/04 09:30:04;;;;;;;65.97;10.87;;;18.60;51.90;;;;;;5106310;28;20313;-87
2023/05/04 09:32:31;;;;;;;27.93;8.10;;;18.70;51.90;;;;;;5095265;28;20235;-88
2023/05/04 09:35:00;;;;;;;35.00;8.63;;;18.70;52.00;;;;;;5087584;28;20276;-87
2023/05/04 09:37:28;;;;;;;27.30;8.37;;;18.80;52.00;;;;;;5101502;28;20198;-88
2023/05/04 09:39:56;;;;;;;29.60;7.83;;;18.80;52.00;;;;;;5108890;28;20300;-87
2023/05/04 09:42:23;;;;;;;29.53;7.60;;;18.90;52.10;;;;;;5106537;28;20292;-88
2023/05/04 09:45:04;;;;;;;30.43;7.63;;;18.90;52.00;;;;;;5104386;28;20229;-89
2023/05/04 09:47:35;;;;;;;32.03;7.63;;;19.00;52.20;;;;;;5108122;28;20266;-89
2023/05/04 09:50:13;;;;;;;36.73;8.60;;;19.00;52.10;;;;;;5108452;28;20264;-88
2023/05/04 09:52:43;;;;;;;23.67;7.70;;;19.10;52.20;;;;;;5107810;28;20233;-89
2023/05/04 09:55:13;;;;;;;29.77;7.30;;;19.10;52.10;;;;;;5107041;28;20202;-88
2023/05/04 09:57:42;;;;;;;46.47;9.07;;;19.20;52.20;;;;;;5105699;28;20210;-88
2023/05/04 10:00:12;;;;;;;28.83;7.37;;;19.20;52.20;;;;;;5101211;28;20214;-88
2023/05/04 10:02:39;;;;;;;25.87;6.93;;;19.20;52.10;;;;;;5107233;28;20198;-89
2023/05/04 10:05:08;;;;;;;30.70;7.23;;;19.30;52.20;;;;;;5111072;28;20238;-90
2023/05/04 10:07:35;;;;;;;31.90;8.47;;;19.40;52.30;;;;;;5111695;28;20271;-89
2023/05/04 10:10:06;;;;;;;28.53;7.97;;;19.40;52.30;;;;;;5105376;28;20230;-92
2023/05/04 10:12:33;;;;;;;43.80;8.90;;;19.40;52.30;;;;;;5108693;27;20211;-89
2023/05/04 10:15:01;;;;;;;25.40;7.40;;;19.50;52.40;;;;;;5100744;28;20206;-88
2023/05/04 10:17:41;;;;;;;27.63;7.97;;;19.50;52.40;;;;;;5106175;28;20281;-89
2023/05/04 10:20:38;;;;;;;34.33;10.03;;;19.60;52.60;;;;;;5108547;28;20209;-92
2023/05/04 10:23:38;;;;;;;31.73;10.03;;;19.70;52.80;;;;;;5111584;28;20241;-89
2023/05/04 10:26:34;;;;;;;34.07;10.50;;;19.70;52.90;;;;;;5113800;27;20266;-89
2023/05/04 10:29:22;;;;;;;27.50;9.37;;;19.80;53.10;;;;;;5110996;28;20297;-88
2023/05/04 10:31:51;;;;;;;37.10;11.10;;;19.90;53.40;;;;;;5112434;28;20194;-94
2023/05/04 10:34:30;;;;;;;22.27;7.87;;;20.00;53.10;;;;;;5104965;28;20229;-96
2023/05/04 10:37:01;;;;;;;32.57;8.87;;;20.10;53.50;;;;;;5099502;28;20206;-96
2023/05/04 10:39:31;;;;;;;28.00;8.53;;;20.20;53.50;;;;;;5110172;28;20437;-96
2023/05/04 10:42:04;;;;;;;24.87;8.37;;;20.30;53.60;;;;;;5109319;28;20650;-96
2023/05/04 10:44:33;;;;;;;33.37;9.10;;;20.50;53.80;;;;;;5109324;28;20358;-96
2023/05/04 10:47:04;;;;;;;25.37;8.13;;;20.60;53.80;;;;;;5113526;28;20716;-96
2023/05/04 10:49:35;;;;;;;27.83;8.00;;;20.70;53.80;;;;;;5113014;28;20709;-96
2023/05/04 10:52:11;;;;;;;23.67;7.57;;;20.90;53.80;;;;;;5114988;28;20209;-96
2023/05/04 10:55:07;;;;;;;41.27;8.63;;;20.90;53.80;;;;;;5118400;27;20209;-96
2023/05/04 10:57:48;;;;;;;28.53;7.80;;;21.10;53.90;;;;;;5069948;27;20204;-96
2023/05/04 11:00:16;;;;;;;30.57;8.33;;;21.20;53.80;;;;;;5110458;28;20202;-93
2023/05/04 11:02:48;;;;;;;51.50;11.30;;;21.20;53.70;;;;;;5097283;28;20202;-95
2023/05/04 11:05:18;;;;;;;32.77;9.67;;;21.40;53.00;;;;;;5111728;27;20202;-95
2023/05/04 11:07:51;;;;;;;34.07;9.50;;;21.50;53.30;;;;;;5123029;27;20205;-96
2023/05/04 11:10:24;;;;;;;24.33;8.30;;;21.50;53.40;;;;;;5128152;27;20225;-95
2023/05/04 11:12:52;;;;;;;24.80;8.03;;;21.60;53.50;;;;;;5091816;28;20205;-96
2023/05/04 11:15:21;;;;;;;21.83;8.47;;;21.70;53.50;;;;;;5094985;28;20210;-96
2023/05/04 11:17:49;;;;;;;20.23;7.63;;;21.80;53.60;;;;;;5098934;28;20199;-95
2023/05/04 11:20:31;;;;;;;22.83;7.53;;;21.90;53.60;;;;;;5118955;28;20207;-96
2023/05/04 11:22:59;;;;;;;28.27;8.47;;;22.00;53.60;;;;;;5111057;28;20190;-96
2023/05/04 11:25:30;;;;;;;26.37;7.93;;;22.00;53.40;;;;;;5102423;28;20198;-96
2023/05/04 11:27:59;;;;;;;25.27;8.37;;;22.10;53.50;;;;;;5099929;28;20207;-96
2023/05/04 11:30:32;;;;;;;29.80;9.03;;;22.20;53.40;;;;;;5098323;28;20316;-96
2023/05/04 11:33:02;;;;;;;30.10;8.03;;;22.30;53.60;;;;;;5111073;28;20233;-96
2023/05/04 11:35:29;;;;;;;30.30;8.87;;;22.30;53.40;;;;;;5120645;27;20212;-96
2023/05/04 11:37:56;;;;;;;31.80;8.40;;;22.40;53.50;;;;;;5092709;28;20201;-96
2023/05/04 11:40:25;;;;;;;29.07;7.97;;;22.50;53.50;;;;;;5091942;28;20252;-96
2023/05/04 11:42:57;;;;;;;24.77;8.00;;;22.50;53.40;;;;;;5098417;27;20221;-96
2023/05/04 11:45:32;;;;;;;33.07;8.63;;;22.60;53.50;;;;;;5111384;28;20220;-96
2023/05/04 11:48:04;;;;;;;30.43;8.40;;;22.60;53.30;;;;;;5110437;28;20228;-95
2023/05/04 11:50:32;;;;;;;31.93;8.47;;;22.70;53.30;;;;;;5105580;27;20230;-96
2023/05/04 11:53:07;;;;;;;28.40;8.40;;;22.70;53.30;;;;;;5111585;28;20210;-96
2023/05/04 11:55:36;;;;;;;36.80;8.63;;;22.80;53.40;;;;;;5111757;28;20653;-95
2023/05/04 11:58:05;;;;;;;49.70;9.87;;;22.80;53.50;;;;;;5092366;28;20209;-96
2023/05/04 12:00:38;;;;;;;26.00;7.87;;;22.80;53.30;;;;;;5112215;28;20644;-95
2023/05/04 12:03:06;;;;;;;35.03;9.47;;;22.90;53.40;;;;;;5097640;28;20210;-95
2023/05/04 12:05:34;;;;;;;30.17;8.63;;;23.00;53.30;;;;;;5095374;28;20198;-96
2023/05/04 12:08:02;;;;;;;29.97;9.13;;;23.00;53.30;;;;;;5108173;28;20199;-96
2023/05/04 12:10:32;;;;;;;24.77;9.27;;;23.00;53.30;;;;;;5134203;27;20270;-95
2023/05/04 12:13:00;;;;;;;26.03;8.40;;;23.10;53.40;;;;;;5143939;27;20285;-96
2023/05/04 12:15:39;;;;;;;23.93;8.10;;;23.10;53.40;;;;;;5125745;28;20218;-95
2023/05/04 12:18:20;;;;;;;20.50;8.47;;;23.20;53.50;;;;;;5114017;28;20205;-95
2023/05/04 12:20:47;;;;;;;16.20;7.13;;;23.20;53.40;;;;;;5112037;28;20727;-95
2023/05/04 12:23:21;;;;;;;24.37;7.70;;;23.30;53.40;;;;;;5108441;28;20256;-95
2023/05/04 12:25:48;;;;;;;24.53;7.53;;;23.30;53.40;;;;;;5113645;28;20202;-96
2023/05/04 12:28:15;;;;;;;18.87;7.73;;;23.40;53.30;;;;;;5112736;28;20637;-95
2023/05/04 12:30:43;;;;;;;37.90;9.17;;;23.40;53.30;;;;;;5106260;28;20234;-93
2023/05/04 12:33:10;;;;;;;25.13;8.70;;;23.40;53.30;;;;;;5111517;28;20279;-96
2023/05/04 12:35:37;;;;;;;25.47;8.23;;;23.50;53.40;;;;;;5101769;28;20294;-96
2023/05/04 12:38:05;;;;;;;35.73;9.07;;;23.50;53.40;;;;;;5102432;27;20209;-94
2023/05/04 12:40:32;;;;;;;31.23;9.07;;;23.50;53.30;;;;;;5101559;28;20239;-93
2023/05/04 12:42:59;;;;;;;30.23;8.77;;;23.50;53.00;;;;;;5103114;28;20201;-91